createdAt,value
2019-02-06T00:01:32.951Z,2.77
2019-02-06T00:04:01.646Z,2.90
2019-02-06T00:06:30.344Z,2.70
2019-02-06T00:08:58.966Z,2.50
2019-02-06T00:11:27.561Z,2.93
2019-02-06T00:13:56.205Z,2.77
2019-02-06T00:16:24.814Z,2.60
2019-02-06T00:18:53.332Z,2.83
2019-02-06T00:21:22.208Z,2.80
2019-02-06T00:23:50.719Z,3.27
2019-02-06T00:26:19.231Z,2.47
2019-02-06T00:28:47.728Z,2.47
2019-02-06T00:31:16.325Z,2.80
2019-02-06T00:33:44.786Z,2.80
2019-02-06T00:36:13.395Z,3.00
2019-02-06T00:38:42.004Z,2.70
2019-02-06T00:41:10.844Z,2.80
2019-02-06T00:43:39.453Z,2.80
2019-02-06T00:46:07.908Z,2.80
2019-02-06T00:48:36.435Z,2.80
2019-02-06T00:51:05.051Z,3.00
2019-02-06T00:53:33.756Z,2.47
2019-02-06T00:56:02.699Z,3.33
2019-02-06T00:58:31.294Z,2.60
2019-02-06T01:00:59.816Z,2.60
2019-02-06T01:03:28.359Z,2.50
2019-02-06T01:05:56.887Z,2.83
2019-02-06T01:08:25.354Z,3.00
2019-02-06T01:10:55.026Z,2.33
2019-02-06T01:13:23.902Z,3.37
2019-02-06T01:15:52.504Z,3.50
2019-02-06T01:18:21.226Z,3.07
2019-02-06T01:20:49.760Z,2.93
2019-02-06T01:23:18.220Z,2.33
2019-02-06T01:25:46.808Z,2.77
2019-02-06T01:28:15.510Z,2.93
2019-02-06T01:30:45.739Z,2.73
2019-02-06T01:33:14.191Z,2.90
2019-02-06T01:35:49.937Z,2.70
2019-02-06T01:38:13.024Z,2.30
2019-02-06T01:40:41.476Z,2.50
2019-02-06T01:43:10.078Z,2.37
2019-02-06T01:45:38.975Z,2.53
2019-02-06T01:48:07.488Z,2.60
2019-02-06T01:50:36.021Z,2.70
2019-02-06T01:53:04.800Z,3.00
2019-02-06T01:55:36.179Z,2.70
2019-02-06T01:58:04.899Z,2.97
2019-02-06T02:00:33.767Z,2.70
2019-02-06T02:03:02.231Z,3.23
2019-02-06T02:05:31.010Z,2.47
2019-02-06T02:07:59.604Z,2.67
2019-02-06T02:10:28.134Z,2.80
2019-02-06T02:12:56.755Z,2.63
2019-02-06T02:15:25.318Z,2.37
2019-02-06T02:17:54.240Z,2.70
2019-02-06T02:20:24.040Z,2.47
2019-02-06T02:22:53.176Z,2.73
2019-02-06T02:25:21.906Z,2.57
2019-02-06T02:27:50.353Z,2.87
2019-02-06T02:30:26.426Z,2.73
2019-02-06T02:32:54.944Z,2.63
2019-02-06T02:35:23.475Z,3.00
2019-02-06T02:37:52.076Z,2.80
2019-02-06T02:40:20.546Z,2.73
2019-02-06T02:42:49.075Z,2.53
2019-02-06T02:45:19.009Z,3.07
2019-02-06T02:47:47.996Z,2.80
2019-02-06T02:50:16.455Z,2.90
2019-02-06T02:52:45.130Z,2.63
2019-02-06T02:55:14.383Z,2.83
2019-02-06T02:57:43.010Z,2.90
2019-02-06T03:00:18.424Z,3.30
2019-02-06T03:03:01.315Z,3.30
2019-02-06T03:05:31.476Z,2.83
2019-02-06T03:08:00.072Z,2.70
2019-02-06T03:10:29.192Z,3.20
2019-02-06T03:12:57.869Z,2.97
2019-02-06T03:15:26.520Z,2.67
2019-02-06T03:17:55.020Z,3.23
2019-02-06T03:20:23.625Z,3.20
2019-02-06T03:22:52.080Z,3.40
2019-02-06T03:25:20.606Z,3.10
2019-02-06T03:27:49.206Z,3.80
2019-02-06T03:30:20.964Z,3.40
2019-02-06T03:32:49.546Z,3.83
2019-02-06T03:35:18.310Z,4.13
2019-02-06T03:37:46.860Z,3.90
2019-02-06T03:40:17.956Z,3.60
2019-02-06T03:42:46.562Z,3.93
2019-02-06T03:45:15.821Z,4.70
2019-02-06T03:47:44.352Z,4.90
2019-02-06T03:50:15.871Z,4.53
2019-02-06T03:52:44.471Z,4.83
2019-02-06T03:55:13.662Z,5.50
2019-02-06T03:57:42.258Z,5.77
2019-02-06T04:00:16.514Z,5.87
2019-02-06T04:02:45.921Z,5.40
2019-02-06T04:05:14.711Z,5.60
2019-02-06T04:07:43.466Z,5.37
2019-02-06T04:10:20.003Z,6.33
2019-02-06T04:12:48.536Z,6.03
2019-02-06T04:15:17.688Z,6.03
2019-02-06T04:17:46.201Z,5.67
2019-02-06T04:20:16.247Z,5.60
2019-02-06T04:22:44.772Z,6.50
2019-02-06T04:25:14.849Z,5.37
2019-02-06T04:27:43.487Z,5.33
2019-02-06T04:30:17.049Z,5.63
2019-02-06T04:32:45.724Z,5.73
2019-02-06T04:35:15.407Z,6.30
2019-02-06T04:37:44.331Z,5.77
2019-02-06T04:40:18.558Z,6.07
2019-02-06T04:42:47.888Z,6.20
2019-02-06T04:45:18.388Z,5.77
2019-02-06T04:47:47.141Z,6.07
2019-02-06T04:50:17.459Z,6.60
2019-02-06T04:52:46.264Z,5.83
2019-02-06T04:55:20.415Z,6.23
2019-02-06T04:58:08.655Z,6.20
2019-02-06T05:00:37.101Z,5.57
2019-02-06T05:03:05.701Z,5.47
2019-02-06T05:05:37.199Z,5.47
2019-02-06T05:08:07.436Z,5.37
2019-02-06T05:10:35.959Z,5.47
2019-02-06T05:13:04.583Z,5.57
2019-02-06T05:15:33.119Z,5.03
2019-02-06T05:18:01.823Z,5.70
2019-02-06T05:20:38.267Z,5.20
2019-02-06T05:23:07.779Z,5.20
2019-02-06T05:25:36.420Z,5.20
2019-02-06T05:28:05.557Z,5.30
2019-02-06T05:30:34.245Z,5.57
2019-02-06T05:33:02.942Z,6.00
2019-02-06T05:35:31.528Z,5.70
2019-02-06T05:38:00.594Z,5.90
2019-02-06T05:40:29.723Z,6.03
2019-02-06T05:42:58.255Z,5.73
2019-02-06T05:45:26.871Z,6.67
2019-02-06T05:47:55.489Z,5.90
2019-02-06T05:50:23.960Z,6.53
2019-02-06T05:52:52.579Z,5.93
2019-02-06T05:55:21.031Z,6.37
2019-02-06T05:57:49.754Z,5.73
2019-02-06T06:00:27.890Z,5.70
2019-02-06T06:02:56.694Z,5.40
2019-02-06T06:05:25.363Z,5.53
2019-02-06T06:07:53.954Z,5.67
2019-02-06T06:10:23.006Z,5.60
2019-02-06T06:12:51.464Z,5.33
2019-02-06T06:15:21.230Z,6.10
2019-02-06T06:17:49.907Z,5.73
2019-02-06T06:20:19.913Z,5.47
2019-02-06T06:22:48.825Z,6.13
2019-02-06T06:25:19.792Z,6.20
2019-02-06T06:27:48.715Z,6.43
2019-02-06T06:30:19.454Z,6.37
2019-02-06T06:32:47.980Z,6.23
2019-02-06T06:35:16.425Z,6.63
2019-02-06T06:37:57.163Z,7.57
2019-02-06T06:40:23.213Z,6.80
2019-02-06T06:42:51.971Z,6.80
2019-02-06T06:45:26.731Z,7.03
2019-02-06T06:48:14.643Z,6.60
2019-02-06T06:50:43.265Z,6.40
2019-02-06T06:53:11.775Z,7.07
2019-02-06T06:55:40.303Z,6.40
2019-02-06T06:58:08.761Z,5.80
2019-02-06T07:00:37.360Z,6.67
2019-02-06T07:03:05.883Z,6.33
2019-02-06T07:05:34.412Z,6.60
2019-02-06T07:08:09.549Z,6.23
2019-02-06T07:10:33.657Z,6.00
2019-02-06T07:13:02.103Z,6.47
2019-02-06T07:15:32.835Z,6.17
2019-02-06T07:18:01.603Z,6.13
2019-02-06T07:20:30.313Z,6.20
2019-02-06T07:22:59.371Z,5.87
2019-02-06T07:25:27.899Z,5.67
2019-02-06T07:27:56.481Z,6.60
2019-02-06T07:30:27.713Z,6.47
2019-02-06T07:32:56.598Z,6.70
2019-02-06T07:35:44.464Z,7.17
2019-02-06T07:38:23.661Z,6.03
2019-02-06T07:40:43.283Z,5.77
2019-02-06T07:43:11.891Z,5.00
2019-02-06T07:45:40.358Z,5.30
2019-02-06T07:48:08.943Z,5.23
2019-02-06T07:50:37.824Z,5.63
2019-02-06T07:53:06.276Z,5.77
2019-02-06T07:55:34.723Z,6.17
2019-02-06T07:58:03.391Z,5.83
2019-02-06T08:00:33.319Z,6.83
2019-02-06T08:03:01.799Z,6.30
2019-02-06T08:05:51.239Z,6.13
2019-02-06T08:08:19.767Z,6.73
2019-02-06T08:10:48.220Z,7.27
2019-02-06T08:13:16.867Z,8.00
2019-02-06T08:15:45.319Z,7.97
2019-02-06T08:18:13.771Z,7.83
2019-02-06T08:20:42.301Z,8.27
2019-02-06T08:23:10.750Z,7.37
2019-02-06T08:25:39.482Z,7.77
2019-02-06T08:28:08.087Z,7.90
2019-02-06T08:30:38.788Z,7.50
2019-02-06T08:33:07.656Z,9.23
2019-02-06T08:35:36.439Z,9.10
2019-02-06T08:38:05.429Z,9.53
2019-02-06T08:40:34.503Z,9.80
2019-02-06T08:43:03.041Z,9.50
2019-02-06T08:45:31.822Z,9.60
2019-02-06T08:48:00.275Z,10.80
2019-02-06T08:50:29.191Z,11.53
2019-02-06T08:52:57.961Z,12.00
2019-02-06T08:55:31.619Z,11.03
2019-02-06T08:58:00.831Z,12.53
2019-02-06T09:00:34.774Z,13.37
2019-02-06T09:03:03.948Z,14.77
2019-02-06T09:05:32.819Z,13.43
2019-02-06T09:08:01.705Z,14.67
2019-02-06T09:10:32.951Z,14.63
2019-02-06T09:13:02.371Z,15.20
2019-02-06T09:15:31.447Z,15.67
2019-02-06T09:18:00.226Z,17.20
2019-02-06T09:20:30.134Z,20.03
2019-02-06T09:22:59.295Z,17.63
2019-02-06T09:25:29.384Z,19.80
2019-02-06T09:27:58.342Z,20.93
2019-02-06T09:30:32.121Z,21.93
2019-02-06T09:33:01.058Z,25.90
2019-02-06T09:35:29.732Z,25.57
2019-02-06T09:37:58.585Z,26.77
2019-02-06T09:40:28.892Z,27.33
2019-02-06T09:42:57.566Z,27.73
2019-02-06T09:45:26.598Z,26.20
2019-02-06T09:47:55.304Z,25.93
2019-02-06T09:50:29.472Z,24.63
2019-02-06T09:52:58.060Z,25.60
2019-02-06T09:55:26.764Z,24.60
2019-02-06T09:57:55.441Z,25.53
2019-02-06T10:00:29.290Z,24.70
2019-02-06T10:02:57.944Z,23.80
2019-02-06T10:05:26.820Z,24.13
2019-02-06T10:07:55.454Z,23.60
2019-02-06T10:10:27.948Z,24.37
2019-02-06T10:12:56.809Z,23.83
2019-02-06T10:15:36.875Z,21.67
2019-02-06T10:18:06.204Z,21.40
2019-02-06T10:20:40.087Z,20.60
2019-02-06T10:23:09.701Z,21.57
2019-02-06T10:25:38.944Z,20.90
2019-02-06T10:28:07.642Z,20.80
2019-02-06T10:30:39.086Z,18.90
2019-02-06T10:33:07.768Z,18.67
2019-02-06T10:35:36.296Z,18.80
2019-02-06T10:38:05.466Z,19.00
2019-02-06T10:40:34.455Z,17.90
2019-02-06T10:43:02.998Z,17.60
2019-02-06T10:45:31.541Z,17.53
2019-02-06T10:48:00.191Z,18.20
2019-02-06T10:50:43.696Z,19.00
2019-02-06T10:53:12.444Z,18.80
2019-02-06T10:55:41.052Z,19.80
2019-02-06T10:58:09.587Z,19.47
2019-02-06T11:00:46.158Z,19.47
2019-02-06T11:03:14.695Z,20.70
2019-02-06T11:05:43.299Z,19.30
2019-02-06T11:08:12.155Z,18.27
2019-02-06T11:10:40.917Z,18.27
2019-02-06T11:13:09.534Z,18.37
2019-02-06T11:15:38.786Z,19.80
2019-02-06T11:18:07.664Z,20.03
2019-02-06T11:20:38.427Z,19.63
2019-02-06T11:23:08.053Z,19.17
2019-02-06T11:25:36.952Z,18.70
2019-02-06T11:28:06.764Z,20.40
2019-02-06T11:30:37.732Z,19.23
2019-02-06T11:33:07.834Z,19.73
2019-02-06T11:35:36.858Z,19.20
2019-02-06T11:38:06.928Z,17.77
2019-02-06T11:40:37.077Z,17.67
2019-02-06T11:43:06.470Z,19.27
2019-02-06T11:45:36.139Z,19.07
2019-02-06T11:48:05.536Z,18.50
2019-02-06T11:50:39.142Z,18.67
2019-02-06T11:53:09.957Z,19.37
2019-02-06T11:55:38.623Z,21.47
2019-02-06T11:58:07.719Z,19.80
2019-02-06T12:00:54.552Z,20.07
2019-02-06T12:03:23.203Z,20.27
2019-02-06T12:05:51.729Z,20.63
2019-02-06T12:08:20.202Z,21.17
2019-02-06T12:10:49.276Z,21.70
2019-02-06T12:13:17.945Z,20.23
2019-02-06T12:15:59.660Z,20.67
2019-02-06T12:18:28.344Z,19.50
2019-02-06T12:20:56.888Z,20.30
2019-02-06T12:23:32.427Z,20.43
2019-02-06T12:25:56.088Z,19.77
2019-02-06T12:28:24.621Z,20.93
2019-02-06T12:30:56.045Z,19.37
2019-02-06T12:33:23.600Z,20.53
2019-02-06T12:35:52.138Z,21.00
2019-02-06T12:38:20.589Z,21.40
2019-02-06T12:40:49.721Z,22.17
2019-02-06T12:43:18.271Z,22.13
2019-02-06T12:45:46.856Z,21.80
2019-02-06T12:48:15.451Z,22.17
2019-02-06T12:50:44.059Z,23.07
2019-02-06T12:53:12.687Z,24.30
2019-02-06T12:55:41.807Z,22.73
2019-02-06T12:58:10.787Z,22.17
2019-02-06T13:00:44.063Z,23.33
2019-02-06T13:03:12.731Z,21.40
2019-02-06T13:05:41.355Z,23.67
2019-02-06T13:08:10.106Z,23.93
2019-02-06T13:10:38.700Z,23.03
2019-02-06T13:13:07.325Z,23.50
2019-02-06T13:15:36.384Z,24.50
2019-02-06T13:18:05.339Z,23.13
2019-02-06T13:20:35.810Z,24.13
2019-02-06T13:23:05.750Z,23.47
2019-02-06T13:25:34.616Z,25.03
2019-02-06T13:28:03.211Z,25.60
2019-02-06T13:30:35.676Z,25.33
2019-02-06T13:33:05.881Z,23.97
2019-02-06T13:35:34.408Z,26.53
2019-02-06T13:38:03.070Z,24.93
2019-02-06T13:40:31.520Z,24.63
2019-02-06T13:43:00.296Z,24.77
2019-02-06T13:45:32.220Z,23.43
2019-02-06T13:48:00.938Z,22.53
2019-02-06T13:50:50.200Z,23.33
2019-02-06T13:53:18.692Z,22.70
2019-02-06T13:55:47.628Z,23.30
2019-02-06T13:58:20.423Z,23.50
2019-02-06T14:00:46.493Z,22.90
2019-02-06T14:03:15.024Z,23.50
2019-02-06T14:05:46.647Z,23.60
2019-02-06T14:08:15.830Z,22.10
2019-02-06T14:10:57.102Z,21.73
2019-02-06T14:13:15.171Z,21.70
2019-02-06T14:15:46.533Z,23.20
2019-02-06T14:18:15.832Z,22.50
2019-02-06T14:20:45.869Z,21.57
2019-02-06T14:23:17.396Z,22.87
2019-02-06T14:26:10.086Z,22.83
2019-02-06T14:28:44.791Z,22.63
2019-02-06T14:31:33.070Z,21.63
2019-02-06T14:34:25.300Z,21.00
2019-02-06T14:37:13.679Z,20.47
2019-02-06T14:40:00.255Z,19.10
2019-02-06T14:42:35.068Z,19.77
2019-02-06T14:45:34.351Z,21.50
2019-02-06T14:48:11.557Z,20.57
2019-02-06T14:50:43.180Z,21.27
2019-02-06T14:53:15.092Z,20.43
2019-02-06T14:56:04.843Z,20.67
2019-02-06T14:58:42.178Z,21.67
2019-02-06T15:01:22.831Z,21.63
2019-02-06T15:03:54.464Z,21.70
2019-02-06T15:06:42.593Z,21.70
2019-02-06T15:09:22.330Z,22.53
2019-02-06T15:11:56.188Z,21.83
2019-02-06T15:14:39.940Z,21.60
2019-02-06T15:17:26.480Z,22.53
2019-02-06T15:20:14.579Z,20.20
2019-02-06T15:22:54.713Z,21.20
2019-02-06T15:25:41.320Z,21.70
2019-02-06T15:28:18.652Z,23.33
2019-02-06T15:30:50.247Z,22.30
2019-02-06T15:33:40.212Z,21.73
2019-02-06T15:36:20.579Z,22.30
2019-02-06T15:38:52.308Z,22.10
2019-02-06T15:41:30.978Z,22.33
2019-02-06T15:44:02.828Z,23.70
2019-02-06T15:46:54.830Z,24.07
2019-02-06T15:49:32.147Z,21.50
2019-02-06T15:52:21.445Z,23.40
2019-02-06T15:55:11.269Z,21.87
2019-02-06T15:58:14.538Z,22.70
2019-02-06T16:00:57.659Z,22.30
2019-02-06T16:04:02.455Z,21.97
2019-02-06T16:07:04.703Z,21.23
2019-02-06T16:09:54.289Z,21.17
2019-02-06T16:12:37.694Z,22.67
2019-02-06T16:15:18.414Z,21.73
2019-02-06T16:17:50.138Z,22.57
2019-02-06T16:20:30.867Z,21.37
2019-02-06T16:23:05.216Z,19.23
2019-02-06T16:26:01.086Z,20.13
2019-02-06T16:28:41.560Z,20.53
2019-02-06T16:31:18.965Z,19.60
2019-02-06T16:33:53.434Z,19.03
2019-02-06T16:36:37.006Z,19.83
2019-02-06T16:39:20.195Z,20.73
2019-02-06T16:42:23.163Z,18.77
2019-02-06T16:45:16.554Z,20.43
2019-02-06T16:47:56.643Z,19.93
2019-02-06T16:50:40.263Z,21.53
2019-02-06T16:53:37.628Z,20.67
2019-02-06T16:56:42.915Z,21.33
2019-02-06T16:59:26.412Z,21.97
2019-02-06T17:02:23.776Z,22.10
2019-02-06T17:05:07.167Z,24.00
2019-02-06T17:07:50.276Z,24.53
2019-02-06T17:10:42.726Z,25.70
2019-02-06T17:13:23.484Z,26.07
2019-02-06T17:16:06.881Z,27.00
2019-02-06T17:18:44.525Z,26.93
2019-02-06T17:21:28.208Z,27.37
2019-02-06T17:24:11.716Z,26.97
2019-02-06T17:26:52.882Z,27.87
2019-02-06T17:29:33.135Z,28.33
2019-02-06T17:32:07.887Z,27.53
2019-02-06T17:34:51.124Z,27.57
2019-02-06T17:37:28.291Z,27.90
2019-02-06T17:40:11.955Z,27.10
2019-02-06T17:42:46.029Z,25.97
2019-02-06T17:45:35.740Z,26.43
2019-02-06T17:48:13.129Z,25.67
2019-02-06T17:51:11.956Z,25.67
2019-02-06T17:53:43.543Z,28.03
2019-02-06T17:56:12.165Z,26.80
2019-02-06T17:58:40.760Z,27.53
2019-02-06T18:01:12.918Z,26.73
2019-02-06T18:03:43.806Z,29.20
2019-02-06T18:06:13.475Z,27.37
2019-02-06T18:08:44.193Z,27.57
2019-02-06T18:11:12.785Z,28.33
2019-02-06T18:13:41.388Z,28.53
2019-02-06T18:16:20.828Z,26.80
2019-02-06T18:18:40.730Z,27.63
2019-02-06T18:21:09.364Z,28.40
2019-02-06T18:23:37.977Z,29.17
2019-02-06T18:26:07.506Z,27.47
2019-02-06T18:28:38.306Z,29.30
2019-02-06T18:31:07.390Z,27.90
2019-02-06T18:33:36.072Z,27.57
2019-02-06T18:36:05.853Z,27.67
2019-02-06T18:38:34.502Z,29.73
2019-02-06T18:41:03.298Z,28.80
2019-02-06T18:43:31.993Z,28.50
2019-02-06T18:46:00.583Z,27.70
2019-02-06T18:48:29.747Z,28.30
2019-02-06T18:50:58.652Z,29.10
2019-02-06T18:53:27.329Z,29.03
2019-02-06T18:55:55.923Z,28.67
2019-02-06T18:58:27.391Z,27.77
2019-02-06T19:00:54.720Z,28.13
2019-02-06T19:03:26.871Z,28.80
2019-02-06T19:05:55.552Z,28.40
2019-02-06T19:08:24.219Z,28.77
2019-02-06T19:10:53.120Z,28.13
2019-02-06T19:13:21.813Z,28.90
2019-02-06T19:15:56.577Z,29.80
2019-02-06T19:18:22.125Z,30.43
2019-02-06T19:20:50.655Z,29.23
2019-02-06T19:23:19.241Z,32.50
2019-02-06T19:25:47.787Z,30.67
2019-02-06T19:28:16.529Z,30.73
2019-02-06T19:30:46.189Z,31.87
2019-02-06T19:33:17.138Z,32.00
2019-02-06T19:35:45.388Z,33.73
2019-02-06T19:38:13.964Z,33.27
2019-02-06T19:40:42.589Z,32.43
2019-02-06T19:43:11.221Z,33.47
2019-02-06T19:45:41.875Z,30.50
2019-02-06T19:48:16.090Z,31.73
2019-02-06T19:50:42.742Z,32.23
2019-02-06T19:53:11.542Z,30.30
2019-02-06T19:55:40.157Z,29.97
2019-02-06T19:58:10.112Z,30.43
2019-02-06T20:00:39.183Z,29.83
2019-02-06T20:03:08.446Z,29.60
2019-02-06T20:05:37.394Z,29.37
2019-02-06T20:08:07.391Z,29.93
2019-02-06T20:10:39.403Z,29.53
2019-02-06T20:13:11.370Z,26.50
2019-02-06T20:15:38.588Z,28.83
2019-02-06T20:18:07.471Z,27.97
2019-02-06T20:20:36.176Z,26.37
2019-02-06T20:23:04.927Z,26.43
2019-02-06T20:25:34.449Z,29.87
2019-02-06T20:28:02.976Z,28.53
2019-02-06T20:30:32.952Z,29.10
2019-02-06T20:33:01.816Z,27.83
2019-02-06T20:35:30.459Z,29.83
2019-02-06T20:37:59.518Z,29.50
2019-02-06T20:40:30.321Z,28.93
2019-02-06T20:42:58.986Z,29.90
2019-02-06T20:45:27.932Z,32.57
2019-02-06T20:47:56.530Z,31.97
2019-02-06T20:50:30.614Z,31.63
2019-02-06T20:52:59.628Z,33.23
2019-02-06T20:55:28.513Z,37.37
2019-02-06T20:57:57.132Z,34.57
2019-02-06T21:00:34.865Z,38.50
2019-02-06T21:03:03.399Z,35.87
2019-02-06T21:05:32.072Z,35.93
2019-02-06T21:08:01.097Z,32.13
2019-02-06T21:10:31.676Z,34.10
2019-02-06T21:13:00.367Z,34.37
2019-02-06T21:15:29.339Z,35.87
2019-02-06T21:17:57.948Z,36.77
2019-02-06T21:20:26.789Z,36.03
2019-02-06T21:22:55.395Z,36.83
2019-02-06T21:25:26.156Z,39.67
2019-02-06T21:27:54.848Z,39.43
2019-02-06T21:30:31.824Z,38.67
2019-02-06T21:33:00.416Z,41.80
2019-02-06T21:35:48.285Z,42.83
2019-02-06T21:38:17.169Z,46.70
2019-02-06T21:40:45.948Z,38.27
2019-02-06T21:43:14.546Z,43.77
2019-02-06T21:45:43.255Z,45.83
2019-02-06T21:48:11.812Z,41.10
2019-02-06T21:50:40.765Z,47.20
2019-02-06T21:53:09.521Z,47.87
2019-02-06T21:55:38.080Z,46.93
2019-02-06T21:58:06.628Z,43.87
2019-02-06T22:00:42.934Z,46.33
2019-02-06T22:03:11.542Z,44.77
2019-02-06T22:05:40.238Z,46.00
2019-02-06T22:08:09.016Z,44.37
2019-02-06T22:10:37.683Z,47.60
2019-02-06T22:13:06.471Z,46.00
2019-02-06T22:15:35.403Z,45.07
2019-02-06T22:18:04.366Z,41.43
2019-02-06T22:20:32.906Z,39.47
2019-02-06T22:23:01.625Z,40.97
2019-02-06T22:25:30.170Z,40.43
2019-02-06T22:27:59.550Z,37.07
2019-02-06T22:30:30.020Z,42.90
2019-02-06T22:32:58.808Z,40.63
2019-02-06T22:35:27.675Z,38.97
2019-02-06T22:37:56.411Z,39.43
2019-02-06T22:40:27.923Z,36.47
2019-02-06T22:42:56.541Z,39.87
2019-02-06T22:45:26.908Z,36.13
2019-02-06T22:47:55.693Z,36.87
2019-02-06T22:50:26.868Z,35.90
2019-02-06T22:52:55.564Z,40.30
2019-02-06T22:55:24.469Z,36.00
2019-02-06T22:57:53.142Z,35.73
2019-02-06T23:00:44.584Z,30.97
2019-02-06T23:03:13.278Z,35.03
2019-02-06T23:06:01.260Z,35.53
2019-02-06T23:08:42.933Z,37.77
2019-02-06T23:11:11.656Z,35.10
2019-02-06T23:13:40.654Z,31.93
2019-02-06T23:16:09.374Z,33.93
2019-02-06T23:18:37.998Z,31.30
2019-02-06T23:21:06.704Z,31.90
2019-02-06T23:23:35.636Z,34.10
2019-02-06T23:26:04.735Z,33.90
2019-02-06T23:28:33.405Z,38.13
2019-02-06T23:31:01.863Z,41.53
2019-02-06T23:33:30.497Z,36.43
2019-02-06T23:35:58.951Z,37.10
2019-02-06T23:38:27.785Z,40.93
2019-02-06T23:40:56.575Z,43.60
2019-02-06T23:43:25.179Z,38.40
2019-02-06T23:45:53.702Z,40.47
2019-02-06T23:48:23.008Z,38.57
2019-02-06T23:50:51.645Z,44.07
2019-02-06T23:53:20.121Z,40.63
2019-02-06T23:55:48.722Z,42.50
2019-02-06T23:58:17.263Z,39.20
